Time;durP1;ratioP1;P1;durP2;ratioP2;P2;SDS_P1;SDS_P2;PMS_P1;PMS_P2;Temp;Humidity;BMP_temperature;BMP_pressure;BME280_temperature;BME280_humidity;BME280_pressure;Samples;Min_cycle;Max_cycle;Signal;HPM_P1;HPM_P2
2021/03/13 00:01:33;;;;;;;;;;;9.80;67.10;;;;;;5013568;28;19928;-79
2021/03/13 00:03:59;;;;;;;;;;;9.80;67.80;;;;;;5013851;28;19921;-82
2021/03/13 00:06:25;;;;;;;;;;;9.80;67.40;;;;;;5013817;28;19948;-78
2021/03/13 00:08:52;;;;;;;;;;;9.80;67.20;;;;;;5013662;28;19944;-78
2021/03/13 00:11:18;;;;;;;;;;;9.80;67.20;;;;;;5012220;28;19925;-78
2021/03/13 00:13:45;;;;;;;;;;;9.80;67.80;;;;;;5013167;28;19965;-78
2021/03/13 00:16:11;;;;;;;;;;;9.80;67.90;;;;;;5013589;28;20290;-79
2021/03/13 00:18:38;;;;;;;;;;;9.80;67.90;;;;;;5013519;28;20315;-79
2021/03/13 00:21:05;;;;;;;;;;;9.80;68.00;;;;;;5012507;28;19944;-78
2021/03/13 00:23:32;;;;;;;;;;;9.80;68.20;;;;;;5010965;28;19921;-79
2021/03/13 00:25:59;;;;;;;;;;;9.80;68.30;;;;;;5002699;28;19922;-80
2021/03/13 00:28:25;;;;;;;;;;;9.90;68.60;;;;;;5013158;28;19926;-80
2021/03/13 00:30:53;;;;;;;;;;;9.90;68.60;;;;;;5013800;28;19929;-81
2021/03/13 00:33:20;;;;;;;;;;;10.00;67.10;;;;;;5013185;28;19921;-80
2021/03/13 00:35:47;;;;;;;;;;;9.90;68.10;;;;;;5012788;28;19926;-80
2021/03/13 00:38:13;;;;;;;;;;;9.90;68.70;;;;;;5013589;28;19929;-80
2021/03/13 00:40:41;;;;;;;;;;;9.90;68.80;;;;;;5013339;28;20377;-80
2021/03/13 00:43:09;;;;;;;;;;;9.90;69.00;;;;;;5012343;28;19968;-80
2021/03/13 00:45:35;;;;;;;;;;;9.80;68.90;;;;;;5012689;28;20370;-77
2021/03/13 00:48:03;;;;;;;;;;;9.80;69.10;;;;;;5012413;28;19991;-78
2021/03/13 00:50:30;;;;;;;;;;;9.80;69.20;;;;;;5010914;28;19928;-77
2021/03/13 00:52:57;;;;;;;;;;;9.80;69.10;;;;;;5012639;28;20404;-77
2021/03/13 00:55:23;;;;;;;;;;;9.70;69.10;;;;;;5013016;28;19921;-80
2021/03/13 00:57:50;;;;;;;;;;;9.70;69.60;;;;;;5013384;28;19932;-80
2021/03/13 01:00:17;;;;;;;;;;;9.70;69.60;;;;;;5011876;28;19971;-80
2021/03/13 01:02:45;;;;;;;;;;;9.60;69.20;;;;;;5008532;28;19945;-80
2021/03/13 01:05:13;;;;;;;;;;;9.50;69.80;;;;;;5010707;28;19921;-79
2021/03/13 01:07:40;;;;;;;;;;;9.50;70.40;;;;;;5012608;28;19921;-78
2021/03/13 01:10:11;;;;;;;;;;;9.40;71.00;;;;;;5012733;28;19932;-81
2021/03/13 01:12:37;;;;;;;;;;;9.30;71.90;;;;;;5013372;28;20231;-81
2021/03/13 01:15:05;;;;;;;;;;;9.20;72.90;;;;;;5011472;28;19922;-81
2021/03/13 01:17:32;;;;;;;;;;;9.20;73.50;;;;;;5009373;28;19976;-80
2021/03/13 01:19:58;;;;;;;;;;;9.20;74.10;;;;;;5012413;28;19921;-80
2021/03/13 01:22:25;;;;;;;;;;;9.20;74.70;;;;;;5012945;28;19929;-81
2021/03/13 01:24:52;;;;;;;;;;;9.10;74.30;;;;;;5012457;28;19921;-82
2021/03/13 01:27:18;;;;;;;;;;;9.00;74.80;;;;;;5012649;28;19929;-81
2021/03/13 01:29:44;;;;;;;;;;;9.00;74.90;;;;;;5004048;28;19975;-81
2021/03/13 01:32:11;;;;;;;;;;;9.00;74.70;;;;;;5012443;28;19972;-80
2021/03/13 01:34:37;;;;;;;;;;;9.00;74.60;;;;;;5012853;28;19928;-80
2021/03/13 01:37:04;;;;;;;;;;;9.00;74.20;;;;;;5016277;28;19984;-81
2021/03/13 01:39:31;;;;;;;;;;;8.90;74.20;;;;;;5016664;28;19932;-81
2021/03/13 01:41:57;;;;;;;;;;;8.90;74.40;;;;;;5016084;28;19925;-81
2021/03/13 01:44:24;;;;;;;;;;;8.90;74.30;;;;;;5015258;28;19925;-81
2021/03/13 01:46:50;;;;;;;;;;;8.90;74.00;;;;;;5016106;28;19921;-80
2021/03/13 01:49:18;;;;;;;;;;;8.90;73.60;;;;;;5016216;28;19979;-80
2021/03/13 01:51:45;;;;;;;;;;;8.90;73.90;;;;;;5016773;28;19921;-80
2021/03/13 01:54:12;;;;;;;;;;;8.90;73.90;;;;;;5015783;28;19929;-82
2021/03/13 01:56:40;;;;;;;;;;;8.90;74.10;;;;;;5015757;28;19921;-82
2021/03/13 01:59:06;;;;;;;;;;;8.90;74.30;;;;;;5016567;28;20266;-83
2021/03/13 02:01:33;;;;;;;;;;;9.00;74.10;;;;;;5015365;28;19968;-81
2021/03/13 02:04:00;;;;;;;;;;;9.00;73.90;;;;;;5016678;28;19921;-81
2021/03/13 02:06:26;;;;;;;;;;;9.10;73.70;;;;;;5016873;28;19925;-81
2021/03/13 02:08:57;;;;;;;;;;;9.10;73.60;;;;;;5016071;28;19929;-81
2021/03/13 02:11:32;;;;;;;;;;;9.00;73.60;;;;;;5009967;28;19926;-81
2021/03/13 02:14:07;;;;;;;;;;;9.10;73.80;;;;;;5015873;28;19929;-82
2021/03/13 02:16:34;;;;;;;;;;;9.10;73.80;;;;;;5010062;28;19932;-82
2021/03/13 02:19:08;;;;;;;;;;;9.10;73.80;;;;;;5015835;28;19928;-80
2021/03/13 02:21:37;;;;;;;;;;;9.10;73.70;;;;;;5015432;28;20382;-81
2021/03/13 02:24:09;;;;;;;;;;;9.10;73.80;;;;;;5015475;28;19925;-80
2021/03/13 02:26:44;;;;;;;;;;;9.10;73.60;;;;;;5015481;28;20416;-81
2021/03/13 02:29:25;;;;;;;;;;;9.00;73.70;;;;;;5015762;28;19928;-80
2021/03/13 02:31:56;;;;;;;;;;;9.00;73.80;;;;;;5015764;28;19922;-81
2021/03/13 02:34:25;;;;;;;;;;;9.00;73.90;;;;;;5008206;28;20381;-81
2021/03/13 02:36:52;;;;;;;;;;;9.00;74.00;;;;;;5013465;28;20256;-81
2021/03/13 02:39:20;;;;;;;;;;;9.00;74.30;;;;;;4996559;28;20371;-81
2021/03/13 02:41:47;;;;;;;;;;;9.00;74.10;;;;;;5007853;28;20024;-79
2021/03/13 02:44:15;;;;;;;;;;;9.00;73.90;;;;;;5014773;28;19922;-80
2021/03/13 02:46:46;;;;;;;;;;;9.00;74.20;;;;;;5015141;28;19928;-79
2021/03/13 02:49:12;;;;;;;;;;;9.00;74.20;;;;;;5014758;28;19922;-79
2021/03/13 02:51:40;;;;;;;;;;;9.00;74.10;;;;;;5014455;28;19921;-79
2021/03/13 02:54:07;;;;;;;;;;;9.00;74.20;;;;;;5015657;28;19925;-79
2021/03/13 02:56:34;;;;;;;;;;;9.00;74.20;;;;;;5014992;28;19971;-79
2021/03/13 02:59:01;;;;;;;;;;;9.00;74.10;;;;;;5015015;28;19944;-78
2021/03/13 03:01:28;;;;;;;;;;;9.00;74.20;;;;;;5014890;28;19921;-79
2021/03/13 03:03:56;;;;;;;;;;;9.00;74.10;;;;;;5012566;28;19983;-78
2021/03/13 03:06:23;;;;;;;;;;;9.10;74.10;;;;;;5013347;28;20378;-81
2021/03/13 03:08:50;;;;;;;;;;;9.10;74.10;;;;;;5014707;28;19976;-80
2021/03/13 03:11:19;;;;;;;;;;;9.10;73.90;;;;;;5010911;28;19932;-81
2021/03/13 03:13:47;;;;;;;;;;;9.10;74.00;;;;;;4999895;28;19922;-80
2021/03/13 03:16:13;;;;;;;;;;;9.10;73.80;;;;;;5013114;28;20034;-81
2021/03/13 03:18:40;;;;;;;;;;;9.20;73.70;;;;;;5014035;28;20374;-81
2021/03/13 03:21:08;;;;;;;;;;;9.20;73.70;;;;;;5014512;28;19921;-82
2021/03/13 03:23:37;;;;;;;;;;;9.20;73.50;;;;;;5010811;28;19929;-79
2021/03/13 03:26:03;;;;;;;;;;;9.20;73.70;;;;;;5014650;28;19925;-79
2021/03/13 03:28:29;;;;;;;;;;;9.20;73.70;;;;;;5014154;28;19967;-79
2021/03/13 03:30:56;;;;;;;;;;;9.20;73.70;;;;;;5008509;28;19972;-79
2021/03/13 03:33:23;;;;;;;;;;;9.20;73.70;;;;;;5014300;28;19921;-78
2021/03/13 03:35:49;;;;;;;;;;;9.20;73.70;;;;;;5014728;28;19921;-79
2021/03/13 03:38:17;;;;;;;;;;;9.20;73.50;;;;;;5014138;28;19928;-81
2021/03/13 03:40:44;;;;;;;;;;;9.30;73.30;;;;;;5013083;28;19922;-79
2021/03/13 03:43:15;;;;;;;;;;;9.30;73.10;;;;;;5014476;28;19926;-80
2021/03/13 03:45:42;;;;;;;;;;;9.40;73.20;;;;;;5008764;28;19921;-80
2021/03/13 03:48:09;;;;;;;;;;;9.40;73.20;;;;;;5013932;28;19929;-80
2021/03/13 03:50:37;;;;;;;;;;;9.50;73.20;;;;;;5014065;28;19921;-80
2021/03/13 03:53:04;;;;;;;;;;;9.50;73.00;;;;;;5013870;28;20365;-80
2021/03/13 03:55:32;;;;;;;;;;;9.50;72.60;;;;;;5013317;28;20325;-80
2021/03/13 03:57:59;;;;;;;;;;;9.60;72.60;;;;;;5010859;28;20227;-79
2021/03/13 04:00:25;;;;;;;;;;;9.60;72.60;;;;;;5013300;28;19925;-79
2021/03/13 04:02:53;;;;;;;;;;;9.60;72.70;;;;;;5013937;28;20403;-80
2021/03/13 04:05:20;;;;;;;;;;;9.60;72.80;;;;;;5013107;28;19921;-80
2021/03/13 04:07:46;;;;;;;;;;;9.60;72.90;;;;;;5014156;28;19933;-81
2021/03/13 04:10:14;;;;;;;;;;;9.60;72.70;;;;;;5013303;28;19921;-82
2021/03/13 04:12:44;;;;;;;;;;;9.70;72.50;;;;;;5012728;28;19975;-81
2021/03/13 04:15:11;;;;;;;;;;;9.70;72.10;;;;;;5008990;28;19921;-80
2021/03/13 04:17:38;;;;;;;;;;;9.70;71.80;;;;;;5013267;28;19921;-80
2021/03/13 04:20:05;;;;;;;;;;;9.70;71.40;;;;;;5013581;28;19921;-79
2021/03/13 04:22:32;;;;;;;;;;;9.70;71.20;;;;;;5013522;28;19925;-81
2021/03/13 04:25:00;;;;;;;;;;;9.70;71.50;;;;;;5012332;28;19921;-80
2021/03/13 04:27:26;;;;;;;;;;;9.80;71.70;;;;;;5013804;28;19925;-82
2021/03/13 04:29:54;;;;;;;;;;;9.90;71.30;;;;;;5012544;28;19967;-81
2021/03/13 04:32:21;;;;;;;;;;;9.80;70.80;;;;;;5013117;28;19932;-81
2021/03/13 04:34:47;;;;;;;;;;;9.90;71.00;;;;;;5013042;28;20262;-80
2021/03/13 04:37:14;;;;;;;;;;;9.90;70.50;;;;;;5012552;28;19928;-80
2021/03/13 04:39:41;;;;;;;;;;;9.90;70.50;;;;;;5002165;28;19926;-80
2021/03/13 04:42:08;;;;;;;;;;;9.90;70.30;;;;;;4997280;28;19984;-80
2021/03/13 04:44:34;;;;;;;;;;;9.90;70.40;;;;;;5012504;28;20001;-80
2021/03/13 04:47:02;;;;;;;;;;;9.80;70.30;;;;;;5012742;28;20259;-80
2021/03/13 04:49:29;;;;;;;;;;;9.90;70.60;;;;;;5012414;28;19930;-80
2021/03/13 04:51:59;;;;;;;;;;;9.90;70.50;;;;;;5011362;28;20277;-80
2021/03/13 04:54:25;;;;;;;;;;;9.90;70.50;;;;;;5013052;28;20290;-80
2021/03/13 04:56:52;;;;;;;;;;;9.90;70.40;;;;;;5012069;28;19937;-80
2021/03/13 04:59:18;;;;;;;;;;;9.90;70.30;;;;;;5012859;28;19922;-79
2021/03/13 05:01:45;;;;;;;;;;;9.90;70.40;;;;;;5012058;28;20373;-80
2021/03/13 05:04:12;;;;;;;;;;;9.80;69.60;;;;;;5012541;28;19937;-80
2021/03/13 05:06:38;;;;;;;;;;;9.80;69.80;;;;;;5012714;28;19928;-81
2021/03/13 05:09:05;;;;;;;;;;;9.90;69.90;;;;;;5009773;28;19956;-81
2021/03/13 05:11:33;;;;;;;;;;;9.80;69.40;;;;;;5009984;28;19925;-81
2021/03/13 05:14:00;;;;;;;;;;;9.80;69.20;;;;;;5013311;28;20354;-80
2021/03/13 05:16:27;;;;;;;;;;;9.80;69.20;;;;;;5009828;28;19921;-80
2021/03/13 05:18:53;;;;;;;;;;;9.70;69.20;;;;;;5012603;28;19944;-81
2021/03/13 05:21:21;;;;;;;;;;;9.80;69.60;;;;;;5013031;28;20337;-80
2021/03/13 05:23:47;;;;;;;;;;;9.80;68.90;;;;;;5012581;28;19922;-80
2021/03/13 05:26:14;;;;;;;;;;;9.90;68.80;;;;;;5013225;28;19921;-80
2021/03/13 05:28:40;;;;;;;;;;;9.90;68.00;;;;;;5011857;28;20370;-80
2021/03/13 05:31:06;;;;;;;;;;;10.00;67.00;;;;;;4993307;28;20445;-81
2021/03/13 05:33:33;;;;;;;;;;;10.00;66.10;;;;;;5009430;28;19921;-81
2021/03/13 05:35:59;;;;;;;;;;;10.00;66.00;;;;;;5011163;28;19928;-82
2021/03/13 05:38:26;;;;;;;;;;;10.10;66.10;;;;;;5012652;28;20289;-82
2021/03/13 05:40:53;;;;;;;;;;;10.00;65.70;;;;;;5013017;28;19971;-82
2021/03/13 05:43:20;;;;;;;;;;;10.00;65.20;;;;;;5009847;28;19921;-81
2021/03/13 05:45:47;;;;;;;;;;;10.00;64.70;;;;;;5006019;28;19921;-80
2021/03/13 05:48:13;;;;;;;;;;;10.00;64.90;;;;;;5012160;28;20266;-80
2021/03/13 05:50:40;;;;;;;;;;;10.10;65.10;;;;;;5012387;28;20378;-80
2021/03/13 05:53:10;;;;;;;;;;;10.10;64.70;;;;;;5011421;28;19925;-81
2021/03/13 05:55:37;;;;;;;;;;;10.20;64.30;;;;;;5011990;28;19926;-81
2021/03/13 05:58:06;;;;;;;;;;;10.20;63.90;;;;;;5012343;28;19922;-79
2021/03/13 06:00:33;;;;;;;;;;;10.30;64.00;;;;;;5011398;28;19922;-80
2021/03/13 06:03:00;;;;;;;;;;;10.20;63.40;;;;;;5011669;28;19928;-79
2021/03/13 06:05:26;;;;;;;;;;;10.10;63.20;;;;;;5012068;28;19984;-79
2021/03/13 06:07:53;;;;;;;;;;;10.20;63.40;;;;;;5010916;28;19928;-82
2021/03/13 06:10:20;;;;;;;;;;;10.20;63.20;;;;;;5010943;28;20350;-79
2021/03/13 06:12:47;;;;;;;;;;;10.20;63.10;;;;;;4996112;28;19929;-82
2021/03/13 06:15:13;;;;;;;;;;;10.20;62.70;;;;;;5009923;28;20294;-80
2021/03/13 06:17:58;;;;;;;;;;;10.20;62.50;;;;;;5012623;28;19943;-80
2021/03/13 06:20:31;;;;;;;;;;;10.20;62.80;;;;;;5007424;28;19980;-80
2021/03/13 06:23:01;;;;;;;;;;;10.20;62.70;;;;;;5011243;28;19925;-78
2021/03/13 06:25:27;;;;;;;;;;;10.30;62.70;;;;;;5014558;28;20317;-78
2021/03/13 06:28:05;;;;;;;;;;;10.40;62.70;;;;;;5015553;28;19929;-78
2021/03/13 06:30:32;;;;;;;;;;;10.50;62.30;;;;;;5015463;28;19925;-76
2021/03/13 06:32:58;;;;;;;;;;;10.50;62.10;;;;;;5015067;28;19922;-78
2021/03/13 06:35:25;;;;;;;;;;;10.50;61.80;;;;;;5016091;28;19925;-76
2021/03/13 06:37:52;;;;;;;;;;;10.50;61.90;;;;;;5012504;28;19929;-77
2021/03/13 06:40:31;;;;;;;;;;;10.60;61.90;;;;;;4999070;28;20314;-77
2021/03/13 06:42:58;;;;;;;;;;;10.60;61.30;;;;;;5015993;28;19936;-76
2021/03/13 06:45:25;;;;;;;;;;;10.70;60.60;;;;;;5014463;28;19929;-76
2021/03/13 06:47:51;;;;;;;;;;;10.70;60.40;;;;;;5015267;28;19928;-77
2021/03/13 06:50:19;;;;;;;;;;;10.80;60.30;;;;;;5015616;28;19921;-76
2021/03/13 06:52:46;;;;;;;;;;;10.80;59.50;;;;;;5015158;28;19925;-76
2021/03/13 06:55:15;;;;;;;;;;;10.90;59.60;;;;;;5015635;28;19921;-78
2021/03/13 06:57:41;;;;;;;;;;;10.80;59.30;;;;;;5015130;28;20009;-77
2021/03/13 07:00:08;;;;;;;;;;;10.80;59.40;;;;;;5013621;28;19922;-76
2021/03/13 07:02:36;;;;;;;;;;;10.90;58.80;;;;;;5015386;28;19921;-77
2021/03/13 07:05:09;;;;;;;;;;;11.00;59.10;;;;;;5013548;28;19922;-78
2021/03/13 07:07:35;;;;;;;;;;;11.10;58.70;;;;;;5014891;28;20325;-77
2021/03/13 07:10:04;;;;;;;;;;;11.20;58.30;;;;;;5014619;28;19925;-77
2021/03/13 07:12:32;;;;;;;;;;;11.30;58.20;;;;;;5014223;28;20348;-76
2021/03/13 07:15:11;;;;;;;;;;;11.30;57.60;;;;;;5014477;28;20302;-77
2021/03/13 07:17:39;;;;;;;;;;;11.30;56.80;;;;;;5014319;28;19975;-79
2021/03/13 07:20:06;;;;;;;;;;;11.30;56.90;;;;;;5013952;28;19922;-78
2021/03/13 07:22:33;;;;;;;;;;;11.40;56.80;;;;;;5014527;28;19922;-78
2021/03/13 07:25:00;;;;;;;;;;;11.50;56.10;;;;;;5014908;28;20389;-77
2021/03/13 07:27:29;;;;;;;;;;;11.50;55.90;;;;;;5014724;28;19922;-76
2021/03/13 07:29:56;;;;;;;;;;;11.50;55.70;;;;;;5012976;28;20352;-78
2021/03/13 07:32:24;;;;;;;;;;;11.40;55.60;;;;;;5014801;28;20010;-76
2021/03/13 07:34:54;;;;;;;;;;;11.50;55.60;;;;;;5013332;28;20044;-76
2021/03/13 07:37:20;;;;;;;;;;;11.70;55.20;;;;;;5014235;28;19929;-77
2021/03/13 07:39:47;;;;;;;;;;;11.80;54.70;;;;;;5014658;28;19928;-78
2021/03/13 07:42:15;;;;;;;;;;;12.00;54.60;;;;;;5014020;28;20314;-78
2021/03/13 07:44:42;;;;;;;;;;;12.10;53.90;;;;;;5013689;28;19927;-76
2021/03/13 07:47:10;;;;;;;;;;;12.10;54.10;;;;;;5013491;28;19928;-76
2021/03/13 07:49:36;;;;;;;;;;;12.10;53.60;;;;;;5014125;28;20396;-78
2021/03/13 07:52:05;;;;;;;;;;;12.20;53.60;;;;;;5013781;28;19928;-80
2021/03/13 07:54:32;;;;;;;;;;;12.00;52.80;;;;;;5014297;28;19929;-79
2021/03/13 07:57:00;;;;;;;;;;;12.10;53.60;;;;;;5011976;28;19921;-78
2021/03/13 07:59:45;;;;;;;;;;;12.30;53.30;;;;;;5013366;28;19983;-79
2021/03/13 08:02:26;;;;;;;;;;;12.60;53.10;;;;;;5013993;28;19976;-78
2021/03/13 08:04:53;;;;;;;;;;;12.70;51.80;;;;;;5009219;28;19922;-80
2021/03/13 08:07:21;;;;;;;;;;;12.80;50.90;;;;;;5013808;28;19922;-78
2021/03/13 08:09:47;;;;;;;;;;;12.70;50.90;;;;;;5013816;28;20382;-77
2021/03/13 08:12:34;;;;;;;;;;;12.60;51.10;;;;;;5009663;28;19929;-79
2021/03/13 08:15:00;;;;;;;;;;;12.30;51.10;;;;;;5010393;28;19922;-79
2021/03/13 08:17:38;;;;;;;;;;;12.30;51.50;;;;;;5013778;28;19928;-78
2021/03/13 08:20:05;;;;;;;;;;;12.30;51.40;;;;;;5013131;28;19921;-78
2021/03/13 08:22:32;;;;;;;;;;;12.30;51.20;;;;;;5013481;28;19926;-78
2021/03/13 08:24:59;;;;;;;;;;;12.20;50.90;;;;;;5011331;28;20015;-79
2021/03/13 08:27:38;;;;;;;;;;;12.10;51.00;;;;;;5013169;28;19921;-78
2021/03/13 08:30:21;;;;;;;;;;;11.90;51.40;;;;;;5013928;28;19921;-78
2021/03/13 08:32:57;;;;;;;;;;;11.90;51.50;;;;;;5013306;28;19968;-79
2021/03/13 08:35:30;;;;;;;;;;;11.90;51.30;;;;;;5012733;28;19925;-77
2021/03/13 08:37:58;;;;;;;;;;;11.90;51.20;;;;;;5013634;28;20020;-79
2021/03/13 08:40:25;;;;;;;;;;;11.80;50.90;;;;;;5010841;28;20329;-79
2021/03/13 08:42:51;;;;;;;;;;;11.90;51.10;;;;;;5013190;28;19921;-77
2021/03/13 08:45:18;;;;;;;;;;;12.00;50.50;;;;;;5012780;28;19922;-79
2021/03/13 08:47:48;;;;;;;;;;;12.10;50.00;;;;;;5009442;28;19925;-79
2021/03/13 08:50:35;;;;;;;;;;;12.20;49.50;;;;;;5011176;28;20330;-80
2021/03/13 08:53:16;;;;;;;;;;;12.40;49.70;;;;;;4993900;28;19921;-75
2021/03/13 08:55:43;;;;;;;;;;;12.50;49.30;;;;;;5001122;28;19926;-78
2021/03/13 08:58:09;;;;;;;;;;;12.70;48.50;;;;;;5013393;28;20370;-78
2021/03/13 09:00:36;;;;;;;;;;;12.80;48.00;;;;;;5012896;28;19933;-79
2021/03/13 09:03:03;;;;;;;;;;;12.90;47.60;;;;;;5005515;28;19921;-78
2021/03/13 09:05:29;;;;;;;;;;;13.00;47.40;;;;;;5012298;28;20290;-79
2021/03/13 09:07:57;;;;;;;;;;;12.90;47.30;;;;;;5013376;28;19921;-81
2021/03/13 09:10:24;;;;;;;;;;;13.00;47.40;;;;;;5012890;28;19980;-81
2021/03/13 09:12:52;;;;;;;;;;;13.00;47.30;;;;;;5009348;28;20438;-81
2021/03/13 09:15:19;;;;;;;;;;;13.00;46.90;;;;;;5012607;28;19921;-80
2021/03/13 09:17:46;;;;;;;;;;;13.00;47.00;;;;;;5010813;28;19940;-80
2021/03/13 09:20:14;;;;;;;;;;;13.10;47.10;;;;;;5024495;28;19905;-82
2021/03/13 09:22:58;;;;;;;;;;;13.00;46.70;;;;;;5033458;28;19917;-87
2021/03/13 09:26:00;;;;;;;;;;;13.10;47.00;;;;;;5019699;28;19968;-87
2021/03/13 09:31:36;;;;;;;;;;;13.20;46.80;;;;;;4979549;28;19957;-84
2021/03/13 09:34:12;;;;;;;;;;;13.50;47.40;;;;;;5013399;28;19948;-84
2021/03/13 09:36:39;;;;;;;;;;;13.50;45.60;;;;;;5005825;28;19925;-84
2021/03/13 09:39:05;;;;;;;;;;;13.40;45.50;;;;;;5012428;28;19922;-83
2021/03/13 09:41:32;;;;;;;;;;;13.40;45.70;;;;;;5012313;28;19925;-84
2021/03/13 09:43:58;;;;;;;;;;;13.30;45.70;;;;;;5010716;28;20012;-85
2021/03/13 09:46:25;;;;;;;;;;;13.40;45.70;;;;;;5011882;28;19921;-86
2021/03/13 09:48:56;;;;;;;;;;;13.50;45.50;;;;;;5012637;28;19989;-85
2021/03/13 09:51:22;;;;;;;;;;;13.50;45.70;;;;;;5011015;28;19928;-85
2021/03/13 09:53:49;;;;;;;;;;;13.40;45.70;;;;;;5013068;28;19921;-81
2021/03/13 09:56:15;;;;;;;;;;;13.50;45.60;;;;;;5012990;28;19922;-79
2021/03/13 09:58:42;;;;;;;;;;;13.60;45.70;;;;;;5016033;28;19925;-82
2021/03/13 10:01:08;;;;;;;;;;;13.50;45.60;;;;;;5015728;28;19928;-84
2021/03/13 10:03:35;;;;;;;;;;;13.40;45.70;;;;;;5015738;28;19928;-84
2021/03/13 10:06:07;;;;;;;;;;;13.50;45.80;;;;;;5015361;28;19921;-83
2021/03/13 10:08:34;;;;;;;;;;;13.60;45.90;;;;;;5015956;28;20294;-85
2021/03/13 10:14:00;;;;;;;;;;;13.50;45.70;;;;;;4971403;28;19925;-85
2021/03/13 10:16:30;;;;;;;;;;;13.50;45.90;;;;;;5007672;28;19928;-85
2021/03/13 10:18:59;;;;;;;;;;;13.60;46.10;;;;;;5016126;28;20404;-84
2021/03/13 10:21:28;;;;;;;;;;;13.60;46.50;;;;;;5015154;28;19926;-85
2021/03/13 10:23:58;;;;;;;;;;;13.50;45.90;;;;;;5016221;28;19928;-85
2021/03/13 10:26:28;;;;;;;;;;;13.40;46.00;;;;;;5015619;28;20338;-87
2021/03/13 10:28:55;;;;;;;;;;;13.30;46.20;;;;;;5015035;28;19922;-85
2021/03/13 10:31:27;;;;;;;;;;;13.20;46.80;;;;;;5014096;28;19921;-86
2021/03/13 10:33:54;;;;;;;;;;;13.10;46.70;;;;;;5015161;28;19955;-84
2021/03/13 10:36:41;;;;;;;;;;;13.10;46.60;;;;;;5004715;28;20271;-85
2021/03/13 10:39:09;;;;;;;;;;;13.20;46.60;;;;;;5016205;28;19928;-85
2021/03/13 10:41:48;;;;;;;;;;;13.30;46.40;;;;;;5015348;28;19921;-87
2021/03/13 10:44:31;;;;;;;;;;;13.30;46.60;;;;;;5015656;28;19921;-86
2021/03/13 10:47:02;;;;;;;;;;;13.20;46.50;;;;;;5015202;28;19922;-84
2021/03/13 10:49:31;;;;;;;;;;;13.20;47.10;;;;;;5014921;28;19953;-87
2021/03/13 10:54:59;;;;;;;;;;;13.20;46.50;;;;;;5014685;28;19921;-82
2021/03/13 10:57:25;;;;;;;;;;;13.10;46.50;;;;;;5015030;28;19925;-79
2021/03/13 10:59:51;;;;;;;;;;;13.10;46.70;;;;;;5015623;28;19933;-78
2021/03/13 11:02:17;;;;;;;;;;;13.20;46.50;;;;;;5015310;28;19921;-78
2021/03/13 11:04:44;;;;;;;;;;;13.30;46.40;;;;;;5013529;28;20275;-79
2021/03/13 11:07:10;;;;;;;;;;;13.30;46.10;;;;;;5014917;28;19952;-79
2021/03/13 11:09:37;;;;;;;;;;;13.30;45.90;;;;;;5014581;28;19922;-78
2021/03/13 11:12:05;;;;;;;;;;;13.40;45.80;;;;;;5015295;28;19937;-78
2021/03/13 11:14:32;;;;;;;;;;;13.40;45.70;;;;;;5013665;28;19922;-78
2021/03/13 11:16:58;;;;;;;;;;;13.40;45.50;;;;;;5014078;28;19967;-79
2021/03/13 11:19:25;;;;;;;;;;;13.40;45.70;;;;;;5014552;28;20381;-79
2021/03/13 11:21:52;;;;;;;;;;;13.50;45.40;;;;;;5015111;28;20378;-80
2021/03/13 11:24:19;;;;;;;;;;;13.40;45.20;;;;;;5014898;28;19922;-78
2021/03/13 11:26:45;;;;;;;;;;;13.30;45.40;;;;;;5015086;28;19925;-79
2021/03/13 11:29:13;;;;;;;;;;;13.40;45.90;;;;;;5014511;28;19947;-79
2021/03/13 11:31:39;;;;;;;;;;;13.40;45.30;;;;;;5012353;28;20017;-78
2021/03/13 11:34:05;;;;;;;;;;;13.50;45.60;;;;;;5014545;28;20326;-79
2021/03/13 11:36:32;;;;;;;;;;;13.60;45.10;;;;;;5013169;28;19928;-79
2021/03/13 11:38:58;;;;;;;;;;;13.70;45.00;;;;;;5014821;28;19928;-79
2021/03/13 11:41:24;;;;;;;;;;;13.70;44.80;;;;;;5014193;28;19921;-78
2021/03/13 11:43:51;;;;;;;;;;;13.80;44.90;;;;;;5014719;28;19944;-78
2021/03/13 11:46:18;;;;;;;;;;;13.70;45.40;;;;;;5013256;28;19921;-78
2021/03/13 11:48:44;;;;;;;;;;;13.70;45.50;;;;;;5014553;28;19922;-78
2021/03/13 11:51:11;;;;;;;;;;;13.80;45.00;;;;;;5014495;28;19926;-77
2021/03/13 11:53:37;;;;;;;;;;;13.90;44.80;;;;;;5014753;28;19921;-78
2021/03/13 11:56:04;;;;;;;;;;;14.00;44.90;;;;;;5014264;28;19925;-79
2021/03/13 11:58:30;;;;;;;;;;;14.00;44.50;;;;;;5013331;28;19953;-78
2021/03/13 12:00:56;;;;;;;;;;;14.00;44.70;;;;;;5013744;28;19922;-78
2021/03/13 12:03:24;;;;;;;;;;;13.90;44.90;;;;;;5014408;28;19968;-78
2021/03/13 12:05:50;;;;;;;;;;;13.90;44.60;;;;;;5014338;28;20290;-78
2021/03/13 12:08:16;;;;;;;;;;;13.70;44.60;;;;;;5014396;28;19928;-78
2021/03/13 12:10:43;;;;;;;;;;;13.70;45.10;;;;;;5014340;28;19929;-77
2021/03/13 12:13:09;;;;;;;;;;;13.80;45.30;;;;;;5014379;28;19922;-78
2021/03/13 12:15:35;;;;;;;;;;;13.80;45.70;;;;;;5013852;28;19925;-79
2021/03/13 12:18:01;;;;;;;;;;;13.70;46.80;;;;;;5013246;28;20424;-78
2021/03/13 12:20:29;;;;;;;;;;;13.70;47.50;;;;;;5013618;28;19967;-79
2021/03/13 12:22:55;;;;;;;;;;;13.60;48.00;;;;;;5012292;28;19922;-78
2021/03/13 12:25:21;;;;;;;;;;;13.70;48.30;;;;;;5014087;28;19951;-78
2021/03/13 12:27:48;;;;;;;;;;;13.80;48.40;;;;;;5013609;28;19991;-78
2021/03/13 12:30:15;;;;;;;;;;;13.80;48.30;;;;;;5014025;28;19922;-77
2021/03/13 12:32:42;;;;;;;;;;;13.80;48.70;;;;;;5013984;28;20012;-78
2021/03/13 12:35:09;;;;;;;;;;;13.70;49.00;;;;;;5013810;28;19968;-78
2021/03/13 12:37:37;;;;;;;;;;;13.80;50.10;;;;;;5013848;28;19929;-78
2021/03/13 12:40:04;;;;;;;;;;;14.00;49.70;;;;;;5013791;28;19928;-78
2021/03/13 12:42:30;;;;;;;;;;;14.10;49.50;;;;;;5013260;28;19930;-77
2021/03/13 12:44:56;;;;;;;;;;;14.00;49.00;;;;;;5013519;28;19971;-77
2021/03/13 12:47:23;;;;;;;;;;;13.80;49.60;;;;;;5013057;28;19928;-77
2021/03/13 12:49:49;;;;;;;;;;;13.60;50.40;;;;;;5012095;28;19921;-78
2021/03/13 12:52:15;;;;;;;;;;;13.70;50.50;;;;;;5012762;28;19921;-77
2021/03/13 12:54:43;;;;;;;;;;;13.70;50.70;;;;;;5013593;28;20337;-77
2021/03/13 12:57:09;;;;;;;;;;;13.60;51.00;;;;;;5013290;28;19922;-78
2021/03/13 12:59:35;;;;;;;;;;;13.50;51.40;;;;;;5013685;28;19922;-78
2021/03/13 13:02:01;;;;;;;;;;;13.60;51.60;;;;;;5012840;28;19922;-78
2021/03/13 13:04:30;;;;;;;;;;;13.50;51.90;;;;;;5013509;28;19967;-78
2021/03/13 13:06:56;;;;;;;;;;;13.50;52.30;;;;;;5012591;28;19921;-77
2021/03/13 13:09:22;;;;;;;;;;;13.40;53.00;;;;;;5013231;28;19921;-78
2021/03/13 13:11:50;;;;;;;;;;;13.30;55.80;;;;;;5013284;28;20321;-77
2021/03/13 13:14:16;;;;;;;;;;;13.00;59.00;;;;;;5013275;28;19921;-77
2021/03/13 13:16:42;;;;;;;;;;;12.60;63.10;;;;;;5010396;28;19925;-78
2021/03/13 13:19:09;;;;;;;;;;;12.10;66.50;;;;;;5013280;28;20330;-77
2021/03/13 13:21:35;;;;;;;;;;;11.70;67.80;;;;;;5013325;28;19925;-78
2021/03/13 13:24:02;;;;;;;;;;;11.40;69.10;;;;;;5013157;28;19976;-78
2021/03/13 13:26:28;;;;;;;;;;;11.10;70.60;;;;;;5012031;28;19926;-78
2021/03/13 13:28:55;;;;;;;;;;;10.70;71.10;;;;;;5013113;28;19921;-78
2021/03/13 13:31:21;;;;;;;;;;;10.10;71.60;;;;;;5012880;28;19944;-77
2021/03/13 13:33:48;;;;;;;;;;;9.70;75.90;;;;;;5017148;28;20374;-77
2021/03/13 13:36:16;;;;;;;;;;;9.30;77.10;;;;;;5017088;28;19925;-77
2021/03/13 13:38:43;;;;;;;;;;;9.30;79.60;;;;;;5017127;28;20019;-77
2021/03/13 13:41:10;;;;;;;;;;;9.20;81.50;;;;;;5016459;28;19921;-77
2021/03/13 13:43:36;;;;;;;;;;;9.40;82.80;;;;;;5015643;28;20394;-77
2021/03/13 13:46:03;;;;;;;;;;;9.50;83.30;;;;;;5016514;28;19921;-77
2021/03/13 13:48:29;;;;;;;;;;;9.60;82.80;;;;;;5017053;28;20345;-77
2021/03/13 13:50:56;;;;;;;;;;;9.50;79.30;;;;;;5016846;28;19921;-77
2021/03/13 13:53:22;;;;;;;;;;;9.30;79.50;;;;;;5016821;28;19921;-77
2021/03/13 13:55:48;;;;;;;;;;;9.20;79.80;;;;;;5016211;28;19926;-78
2021/03/13 13:58:15;;;;;;;;;;;9.20;81.30;;;;;;5016807;28;19921;-77
2021/03/13 14:00:41;;;;;;;;;;;9.20;81.40;;;;;;5016608;28;20033;-77
2021/03/13 14:03:08;;;;;;;;;;;9.40;80.90;;;;;;5016001;28;20000;-77
2021/03/13 14:05:35;;;;;;;;;;;9.50;80.70;;;;;;5016578;28;19933;-77
2021/03/13 14:08:01;;;;;;;;;;;9.80;80.40;;;;;;5015613;28;19928;-77
2021/03/13 14:10:28;;;;;;;;;;;9.90;79.50;;;;;;5015508;28;19922;-77
2021/03/13 14:12:55;;;;;;;;;;;10.10;77.30;;;;;;5016580;28;20290;-77
2021/03/13 14:15:21;;;;;;;;;;;10.20;75.60;;;;;;5016521;28;19929;-77
2021/03/13 14:17:47;;;;;;;;;;;10.10;72.40;;;;;;5015792;28;19928;-77
2021/03/13 14:20:15;;;;;;;;;;;10.10;74.40;;;;;;5016518;28;19921;-77
2021/03/13 14:22:42;;;;;;;;;;;10.20;75.10;;;;;;5016291;28;19925;-77
2021/03/13 14:25:10;;;;;;;;;;;10.40;75.10;;;;;;5016264;28;19921;-77
2021/03/13 14:27:39;;;;;;;;;;;10.60;73.70;;;;;;5016179;28;19975;-78
2021/03/13 14:30:09;;;;;;;;;;;10.50;71.70;;;;;;5015504;28;19921;-78
2021/03/13 14:32:35;;;;;;;;;;;10.30;70.80;;;;;;5016223;28;19921;-79
2021/03/13 14:35:02;;;;;;;;;;;10.10;70.10;;;;;;5013801;28;20255;-78
2021/03/13 14:37:29;;;;;;;;;;;10.00;69.80;;;;;;5016249;28;20020;-77